sensor_id;sensor_type;location;lat;lon;timestamp;pressure;altitude;pressure_sealevel;temperature;humidity
6423;BME280;3244;42.708;23.288;2023-04-23T00:00:51;95009.03;;;10.36;78.44
6423;BME280;3244;42.708;23.288;2023-04-23T00:03:20;95012.66;;;10.29;79.09
6423;BME280;3244;42.708;23.288;2023-04-23T00:05:51;95010.00;;;10.32;79.08
6423;BME280;3244;42.708;23.288;2023-04-23T00:08:20;95007.44;;;10.33;78.88
6423;BME280;3244;42.708;23.288;2023-04-23T00:10:48;95004.25;;;10.27;78.90
6423;BME280;3244;42.708;23.288;2023-04-23T00:13:15;95002.78;;;10.19;78.88
6423;BME280;3244;42.708;23.288;2023-04-23T00:15:42;95008.97;;;10.11;79.06
6423;BME280;3244;42.708;23.288;2023-04-23T00:18:09;95010.00;;;10.05;79.33
6423;BME280;3244;42.708;23.288;2023-04-23T00:20:36;95010.06;;;10.04;79.26
6423;BME280;3244;42.708;23.288;2023-04-23T00:23:02;95011.03;;;10.00;79.13
6423;BME280;3244;42.708;23.288;2023-04-23T00:25:31;95005.06;;;10.01;78.71
6423;BME280;3244;42.708;23.288;2023-04-23T00:27:58;95004.53;;;9.91;78.89
6423;BME280;3244;42.708;23.288;2023-04-23T00:30:24;95001.88;;;9.94;78.58
6423;BME280;3244;42.708;23.288;2023-04-23T00:32:51;95007.06;;;9.91;78.65
6423;BME280;3244;42.708;23.288;2023-04-23T00:35:18;95003.16;;;9.81;78.97
6423;BME280;3244;42.708;23.288;2023-04-23T00:37:45;94994.63;;;9.83;79.16
6423;BME280;3244;42.708;23.288;2023-04-23T00:40:12;95002.47;;;9.76;79.61
6423;BME280;3244;42.708;23.288;2023-04-23T00:42:40;95005.19;;;9.70;79.36
6423;BME280;3244;42.708;23.288;2023-04-23T00:45:09;95003.59;;;9.67;79.33
6423;BME280;3244;42.708;23.288;2023-04-23T00:47:36;95003.00;;;9.59;80.01
6423;BME280;3244;42.708;23.288;2023-04-23T00:50:04;95007.94;;;9.64;79.69
6423;BME280;3244;42.708;23.288;2023-04-23T00:52:32;95007.47;;;9.79;79.05
6423;BME280;3244;42.708;23.288;2023-04-23T00:55:00;94999.94;;;9.76;78.25
6423;BME280;3244;42.708;23.288;2023-04-23T00:57:27;95014.28;;;9.77;78.74
6423;BME280;3244;42.708;23.288;2023-04-23T00:59:55;95006.50;;;9.83;78.24
6423;BME280;3244;42.708;23.288;2023-04-23T01:02:23;95010.03;;;9.77;78.52
6423;BME280;3244;42.708;23.288;2023-04-23T01:04:51;95002.03;;;9.63;78.57
6423;BME280;3244;42.708;23.288;2023-04-23T01:07:20;94997.38;;;9.49;78.91
6423;BME280;3244;42.708;23.288;2023-04-23T01:09:48;95011.09;;;9.42;78.85
6423;BME280;3244;42.708;23.288;2023-04-23T01:12:16;95013.94;;;9.33;79.14
6423;BME280;3244;42.708;23.288;2023-04-23T01:14:43;95013.16;;;9.31;79.59
6423;BME280;3244;42.708;23.288;2023-04-23T01:17:11;95010.56;;;9.33;79.42
6423;BME280;3244;42.708;23.288;2023-04-23T01:19:40;95013.06;;;9.34;79.34
6423;BME280;3244;42.708;23.288;2023-04-23T01:22:09;95012.28;;;9.32;79.17
6423;BME280;3244;42.708;23.288;2023-04-23T01:24:37;95007.38;;;9.26;79.20
6423;BME280;3244;42.708;23.288;2023-04-23T01:27:05;95007.47;;;9.23;79.58
6423;BME280;3244;42.708;23.288;2023-04-23T01:29:32;95010.69;;;9.28;79.50
6423;BME280;3244;42.708;23.288;2023-04-23T01:31:59;95006.63;;;9.23;79.61
6423;BME280;3244;42.708;23.288;2023-04-23T01:34:28;95011.63;;;9.26;79.54
6423;BME280;3244;42.708;23.288;2023-04-23T01:36:56;95010.69;;;9.28;79.49
6423;BME280;3244;42.708;23.288;2023-04-23T01:39:24;95007.22;;;9.32;79.03
6423;BME280;3244;42.708;23.288;2023-04-23T01:41:52;95004.63;;;9.34;79.38
6423;BME280;3244;42.708;23.288;2023-04-23T01:44:18;95010.00;;;9.23;79.47
6423;BME280;3244;42.708;23.288;2023-04-23T01:46:45;95018.47;;;9.22;79.19
6423;BME280;3244;42.708;23.288;2023-04-23T01:49:12;95018.53;;;9.20;78.75
6423;BME280;3244;42.708;23.288;2023-04-23T01:51:39;95019.25;;;9.24;78.86
6423;BME280;3244;42.708;23.288;2023-04-23T01:54:06;95013.50;;;9.19;78.94
6423;BME280;3244;42.708;23.288;2023-04-23T01:56:34;95012.63;;;9.20;78.64
6423;BME280;3244;42.708;23.288;2023-04-23T01:59:01;95024.78;;;9.09;79.02
6423;BME280;3244;42.708;23.288;2023-04-23T02:01:40;95020.59;;;9.08;79.44
6423;BME280;3244;42.708;23.288;2023-04-23T02:04:08;95021.53;;;9.04;79.82
6423;BME280;3244;42.708;23.288;2023-04-23T02:06:35;95023.47;;;8.96;79.51
6423;BME280;3244;42.708;23.288;2023-04-23T02:09:02;95018.47;;;8.93;80.01
6423;BME280;3244;42.708;23.288;2023-04-23T02:11:29;95020.81;;;9.00;79.99
6423;BME280;3244;42.708;23.288;2023-04-23T02:13:58;95022.63;;;8.95;80.17
6423;BME280;3244;42.708;23.288;2023-04-23T02:16:25;95017.72;;;8.91;79.48
6423;BME280;3244;42.708;23.288;2023-04-23T02:18:52;95023.81;;;8.83;80.31
6423;BME280;3244;42.708;23.288;2023-04-23T02:21:19;95023.66;;;8.90;80.55
6423;BME280;3244;42.708;23.288;2023-04-23T02:23:46;95025.47;;;8.84;79.73
6423;BME280;3244;42.708;23.288;2023-04-23T02:26:13;95020.38;;;8.86;79.63
6423;BME280;3244;42.708;23.288;2023-04-23T02:28:40;95023.06;;;8.80;80.16
6423;BME280;3244;42.708;23.288;2023-04-23T02:31:08;95030.53;;;8.84;80.09
6423;BME280;3244;42.708;23.288;2023-04-23T02:33:35;95031.38;;;8.85;79.80
6423;BME280;3244;42.708;23.288;2023-04-23T02:36:01;95014.00;;;8.71;80.59
6423;BME280;3244;42.708;23.288;2023-04-23T02:38:28;95029.88;;;8.78;80.43
6423;BME280;3244;42.708;23.288;2023-04-23T02:40:55;95019.69;;;8.79;80.26
6423;BME280;3244;42.708;23.288;2023-04-23T02:43:21;95028.88;;;8.83;80.16
6423;BME280;3244;42.708;23.288;2023-04-23T02:45:48;95022.97;;;8.83;79.83
6423;BME280;3244;42.708;23.288;2023-04-23T02:48:16;95026.34;;;8.83;79.52
6423;BME280;3244;42.708;23.288;2023-04-23T02:50:43;95022.31;;;8.76;79.74
6423;BME280;3244;42.708;23.288;2023-04-23T02:53:11;95024.13;;;8.71;80.41
6423;BME280;3244;42.708;23.288;2023-04-23T02:55:37;95025.03;;;8.69;80.67
6423;BME280;3244;42.708;23.288;2023-04-23T02:58:04;95027.81;;;8.61;81.06
6423;BME280;3244;42.708;23.288;2023-04-23T03:00:31;95027.94;;;8.55;80.48
6423;BME280;3244;42.708;23.288;2023-04-23T03:02:58;95022.34;;;8.42;81.21
6423;BME280;3244;42.708;23.288;2023-04-23T03:05:26;95028.25;;;8.43;81.12
6423;BME280;3244;42.708;23.288;2023-04-23T03:07:53;95029.00;;;8.46;80.55
6423;BME280;3244;42.708;23.288;2023-04-23T03:10:20;95028.75;;;8.57;80.55
6423;BME280;3244;42.708;23.288;2023-04-23T03:12:46;95034.00;;;8.49;80.19
6423;BME280;3244;42.708;23.288;2023-04-23T03:15:13;95024.84;;;8.44;80.65
6423;BME280;3244;42.708;23.288;2023-04-23T03:17:40;95039.91;;;8.50;80.23
6423;BME280;3244;42.708;23.288;2023-04-23T03:20:08;95037.47;;;8.45;80.59
6423;BME280;3244;42.708;23.288;2023-04-23T03:22:37;95038.03;;;8.57;80.75
6423;BME280;3244;42.708;23.288;2023-04-23T03:25:04;95045.69;;;8.55;80.47
6423;BME280;3244;42.708;23.288;2023-04-23T03:27:31;95041.63;;;8.48;79.59
6423;BME280;3244;42.708;23.288;2023-04-23T03:29:58;95037.41;;;8.48;80.68
6423;BME280;3244;42.708;23.288;2023-04-23T03:32:24;95044.81;;;8.56;79.92
6423;BME280;3244;42.708;23.288;2023-04-23T03:34:51;95046.31;;;8.63;79.55
6423;BME280;3244;42.708;23.288;2023-04-23T03:37:18;95046.41;;;8.60;79.83
6423;BME280;3244;42.708;23.288;2023-04-23T03:39:46;95051.25;;;8.68;79.41
6423;BME280;3244;42.708;23.288;2023-04-23T03:42:13;95049.31;;;8.77;79.92
6423;BME280;3244;42.708;23.288;2023-04-23T03:44:39;95045.81;;;8.81;79.54
6423;BME280;3244;42.708;23.288;2023-04-23T03:47:06;95055.00;;;8.85;80.00
6423;BME280;3244;42.708;23.288;2023-04-23T03:49:33;95049.50;;;9.01;79.07
6423;BME280;3244;42.708;23.288;2023-04-23T03:51:59;95048.44;;;9.09;79.07
6423;BME280;3244;42.708;23.288;2023-04-23T03:54:26;95051.44;;;9.22;78.15
6423;BME280;3244;42.708;23.288;2023-04-23T03:56:54;95049.63;;;9.27;78.07
6423;BME280;3244;42.708;23.288;2023-04-23T03:59:22;95052.56;;;9.41;77.40
6423;BME280;3244;42.708;23.288;2023-04-23T04:01:48;95054.63;;;9.58;77.08
6423;BME280;3244;42.708;23.288;2023-04-23T04:04:15;95059.38;;;9.69;76.58
6423;BME280;3244;42.708;23.288;2023-04-23T04:06:42;95059.88;;;9.80;76.34
6423;BME280;3244;42.708;23.288;2023-04-23T04:09:09;95060.66;;;9.82;75.40
6423;BME280;3244;42.708;23.288;2023-04-23T04:11:35;95052.81;;;9.89;75.27
6423;BME280;3244;42.708;23.288;2023-04-23T04:14:03;95062.59;;;10.02;74.96
6423;BME280;3244;42.708;23.288;2023-04-23T04:16:30;95061.44;;;10.12;74.17
6423;BME280;3244;42.708;23.288;2023-04-23T04:18:57;95063.53;;;10.26;74.33
6423;BME280;3244;42.708;23.288;2023-04-23T04:21:24;95058.41;;;10.53;74.00
6423;BME280;3244;42.708;23.288;2023-04-23T04:23:50;95061.06;;;10.99;73.86
6423;BME280;3244;42.708;23.288;2023-04-23T04:26:17;95065.72;;;11.57;72.50
6423;BME280;3244;42.708;23.288;2023-04-23T04:28:44;95060.75;;;12.20;69.26
6423;BME280;3244;42.708;23.288;2023-04-23T04:31:13;95061.16;;;12.92;66.03
6423;BME280;3244;42.708;23.288;2023-04-23T04:33:40;95060.13;;;13.55;64.48
6423;BME280;3244;42.708;23.288;2023-04-23T04:36:07;95067.56;;;14.15;62.40
6423;BME280;3244;42.708;23.288;2023-04-23T04:38:34;95066.34;;;14.92;61.14
6423;BME280;3244;42.708;23.288;2023-04-23T04:41:03;95063.53;;;15.94;58.24
6423;BME280;3244;42.708;23.288;2023-04-23T04:43:30;95063.00;;;16.95;54.67
6423;BME280;3244;42.708;23.288;2023-04-23T04:45:58;95067.44;;;17.78;51.63
6423;BME280;3244;42.708;23.288;2023-04-23T04:48:27;95059.41;;;18.51;50.70
6423;BME280;3244;42.708;23.288;2023-04-23T04:50:53;95062.19;;;19.51;47.69
6423;BME280;3244;42.708;23.288;2023-04-23T04:53:20;95063.28;;;20.09;45.09
6423;BME280;3244;42.708;23.288;2023-04-23T04:55:47;95062.47;;;20.08;45.01
6423;BME280;3244;42.708;23.288;2023-04-23T04:58:14;95072.13;;;19.81;44.53
6423;BME280;3244;42.708;23.288;2023-04-23T05:00:41;95063.97;;;19.50;45.29
6423;BME280;3244;42.708;23.288;2023-04-23T05:03:08;95073.91;;;19.42;45.86
6423;BME280;3244;42.708;23.288;2023-04-23T05:05:37;95072.47;;;19.38;44.85
6423;BME280;3244;42.708;23.288;2023-04-23T05:08:03;95072.06;;;19.31;44.74
6423;BME280;3244;42.708;23.288;2023-04-23T05:10:30;95077.84;;;19.22;44.61
6423;BME280;3244;42.708;23.288;2023-04-23T05:12:59;95067.13;;;19.16;44.68
6423;BME280;3244;42.708;23.288;2023-04-23T05:15:26;95068.97;;;18.88;45.40
6423;BME280;3244;42.708;23.288;2023-04-23T05:17:52;95071.00;;;18.83;45.62
6423;BME280;3244;42.708;23.288;2023-04-23T05:20:20;95074.13;;;19.39;44.69
6423;BME280;3244;42.708;23.288;2023-04-23T05:22:48;95070.66;;;20.26;42.35
6423;BME280;3244;42.708;23.288;2023-04-23T05:25:15;95065.56;;;20.96;40.38
6423;BME280;3244;42.708;23.288;2023-04-23T05:27:42;95064.47;;;21.45;40.19
6423;BME280;3244;42.708;23.288;2023-04-23T05:30:09;95076.81;;;21.63;39.44
6423;BME280;3244;42.708;23.288;2023-04-23T05:32:36;95071.28;;;21.90;38.79
6423;BME280;3244;42.708;23.288;2023-04-23T05:35:04;95075.72;;;22.54;37.91
6423;BME280;3244;42.708;23.288;2023-04-23T05:37:31;95077.38;;;23.49;36.31
6423;BME280;3244;42.708;23.288;2023-04-23T05:39:59;95071.94;;;23.83;35.60
6423;BME280;3244;42.708;23.288;2023-04-23T05:42:27;95073.94;;;24.00;36.41
6423;BME280;3244;42.708;23.288;2023-04-23T05:44:53;95075.25;;;24.34;33.69
6423;BME280;3244;42.708;23.288;2023-04-23T05:47:20;95077.19;;;25.00;33.13
6423;BME280;3244;42.708;23.288;2023-04-23T05:49:47;95073.50;;;26.33;32.10
6423;BME280;3244;42.708;23.288;2023-04-23T05:52:13;95071.38;;;27.51;30.14
6423;BME280;3244;42.708;23.288;2023-04-23T05:54:40;95073.38;;;28.17;27.92
6423;BME280;3244;42.708;23.288;2023-04-23T05:57:09;95074.72;;;29.12;26.21
6423;BME280;3244;42.708;23.288;2023-04-23T05:59:36;95073.78;;;29.76;25.50
6423;BME280;3244;42.708;23.288;2023-04-23T06:02:02;95073.63;;;30.25;25.91
6423;BME280;3244;42.708;23.288;2023-04-23T06:04:29;95071.47;;;30.37;24.20
6423;BME280;3244;42.708;23.288;2023-04-23T06:06:56;95074.22;;;30.43;24.77
6423;BME280;3244;42.708;23.288;2023-04-23T06:09:22;95070.06;;;30.80;24.22
6423;BME280;3244;42.708;23.288;2023-04-23T06:11:50;95067.03;;;30.91;23.93
6423;BME280;3244;42.708;23.288;2023-04-23T06:14:18;95066.31;;;31.58;23.38
6423;BME280;3244;42.708;23.288;2023-04-23T06:16:45;95057.72;;;32.59;22.58
6423;BME280;3244;42.708;23.288;2023-04-23T06:19:12;95066.34;;;35.09;20.39
6423;BME280;3244;42.708;23.288;2023-04-23T06:21:39;95065.94;;;35.19;19.64
6423;BME280;3244;42.708;23.288;2023-04-23T06:24:06;95061.16;;;31.94;22.37
6423;BME280;3244;42.708;23.288;2023-04-23T06:26:32;95066.03;;;30.38;23.80
6423;BME280;3244;42.708;23.288;2023-04-23T06:28:59;95060.81;;;29.44;25.52
6423;BME280;3244;42.708;23.288;2023-04-23T06:31:28;95062.25;;;29.30;25.76
6423;BME280;3244;42.708;23.288;2023-04-23T06:33:54;95057.72;;;30.66;23.89
6423;BME280;3244;42.708;23.288;2023-04-23T06:36:21;95057.19;;;33.06;22.03
6423;BME280;3244;42.708;23.288;2023-04-23T06:38:48;95057.59;;;34.95;19.91
6423;BME280;3244;42.708;23.288;2023-04-23T06:41:15;95068.69;;;36.16;18.91
6423;BME280;3244;42.708;23.288;2023-04-23T06:43:41;95068.00;;;35.43;19.16
6423;BME280;3244;42.708;23.288;2023-04-23T06:46:08;95050.28;;;34.91;19.51
6423;BME280;3244;42.708;23.288;2023-04-23T06:48:36;95055.75;;;35.68;19.35
6423;BME280;3244;42.708;23.288;2023-04-23T06:51:03;95052.78;;;37.37;17.83
6423;BME280;3244;42.708;23.288;2023-04-23T06:53:30;95051.22;;;37.91;17.85
6423;BME280;3244;42.708;23.288;2023-04-23T06:55:57;95057.34;;;39.48;16.82
6423;BME280;3244;42.708;23.288;2023-04-23T06:58:24;95055.03;;;40.50;15.92
6423;BME280;3244;42.708;23.288;2023-04-23T07:00:55;95048.53;;;41.31;15.16
6423;BME280;3244;42.708;23.288;2023-04-23T07:03:24;95047.91;;;40.95;15.74
6423;BME280;3244;42.708;23.288;2023-04-23T07:05:52;95046.56;;;41.76;14.51
6423;BME280;3244;42.708;23.288;2023-04-23T07:08:19;95047.66;;;40.97;15.77
6423;BME280;3244;42.708;23.288;2023-04-23T07:10:46;95053.03;;;40.85;15.75
6423;BME280;3244;42.708;23.288;2023-04-23T07:13:13;95039.53;;;41.20;15.07
6423;BME280;3244;42.708;23.288;2023-04-23T07:15:40;95040.59;;;42.30;14.64
6423;BME280;3244;42.708;23.288;2023-04-23T07:18:08;95057.69;;;37.58;17.13
6423;BME280;3244;42.708;23.288;2023-04-23T07:20:34;95060.53;;;33.21;20.96
6423;BME280;3244;42.708;23.288;2023-04-23T07:23:03;95045.13;;;32.03;22.48
6423;BME280;3244;42.708;23.288;2023-04-23T07:25:30;95044.78;;;31.25;23.10
6423;BME280;3244;42.708;23.288;2023-04-23T07:27:57;95047.13;;;30.74;24.15
6423;BME280;3244;42.708;23.288;2023-04-23T07:30:25;95042.69;;;32.95;22.07
6423;BME280;3244;42.708;23.288;2023-04-23T07:32:52;95038.72;;;33.55;21.49
6423;BME280;3244;42.708;23.288;2023-04-23T07:35:20;95033.41;;;34.92;20.27
6423;BME280;3244;42.708;23.288;2023-04-23T07:37:46;95039.16;;;36.64;18.42
6423;BME280;3244;42.708;23.288;2023-04-23T07:40:19;95032.78;;;36.40;18.94
6423;BME280;3244;42.708;23.288;2023-04-23T07:42:47;95039.16;;;35.35;19.75
6423;BME280;3244;42.708;23.288;2023-04-23T07:45:13;95036.25;;;35.69;19.93
6423;BME280;3244;42.708;23.288;2023-04-23T07:47:40;95037.50;;;37.07;18.92
6423;BME280;3244;42.708;23.288;2023-04-23T07:50:07;95039.16;;;38.91;16.80
6423;BME280;3244;42.708;23.288;2023-04-23T07:52:35;95040.91;;;38.97;16.90
6423;BME280;3244;42.708;23.288;2023-04-23T07:55:01;95036.47;;;37.08;17.50
6423;BME280;3244;42.708;23.288;2023-04-23T07:57:29;95034.38;;;34.64;20.02
6423;BME280;3244;42.708;23.288;2023-04-23T07:59:56;95041.84;;;34.47;20.03
6423;BME280;3244;42.708;23.288;2023-04-23T08:02:23;95037.50;;;35.40;19.35
6423;BME280;3244;42.708;23.288;2023-04-23T08:04:52;95036.28;;;36.72;19.21
6423;BME280;3244;42.708;23.288;2023-04-23T08:07:18;95023.34;;;36.89;17.75
6423;BME280;3244;42.708;23.288;2023-04-23T08:09:45;95022.31;;;37.14;18.65
6423;BME280;3244;42.708;23.288;2023-04-23T08:12:12;95034.56;;;38.38;17.00
6423;BME280;3244;42.708;23.288;2023-04-23T08:14:42;95031.25;;;34.41;19.97
6423;BME280;3244;42.708;23.288;2023-04-23T08:17:11;95041.03;;;29.81;25.42
6423;BME280;3244;42.708;23.288;2023-04-23T08:19:38;95030.31;;;31.29;24.77
6423;BME280;3244;42.708;23.288;2023-04-23T08:22:05;95023.69;;;34.86;21.13
6423;BME280;3244;42.708;23.288;2023-04-23T08:24:31;95028.13;;;33.21;20.89
6423;BME280;3244;42.708;23.288;2023-04-23T08:26:58;95028.53;;;31.73;22.89
6423;BME280;3244;42.708;23.288;2023-04-23T08:29:26;95028.81;;;33.85;21.00
6423;BME280;3244;42.708;23.288;2023-04-23T08:31:54;95015.03;;;36.85;18.37
6423;BME280;3244;42.708;23.288;2023-04-23T08:34:20;95017.78;;;38.26;18.04
6423;BME280;3244;42.708;23.288;2023-04-23T08:36:47;95008.56;;;38.10;17.05
6423;BME280;3244;42.708;23.288;2023-04-23T08:39:14;95010.09;;;36.89;18.17
6423;BME280;3244;42.708;23.288;2023-04-23T08:41:41;95015.09;;;35.69;19.08
6423;BME280;3244;42.708;23.288;2023-04-23T08:44:12;95014.75;;;31.42;22.46
6423;BME280;3244;42.708;23.288;2023-04-23T08:46:43;95019.41;;;28.00;27.11
6423;BME280;3244;42.708;23.288;2023-04-23T08:49:13;95007.44;;;24.66;31.99
6423;BME280;3244;42.708;23.288;2023-04-23T08:51:44;95015.78;;;24.31;33.44
6423;BME280;3244;42.708;23.288;2023-04-23T08:54:14;94993.78;;;28.03;29.31
6423;BME280;3244;42.708;23.288;2023-04-23T08:56:41;95003.28;;;32.59;22.68
6423;BME280;3244;42.708;23.288;2023-04-23T08:59:10;94996.06;;;34.21;21.09
6423;BME280;3244;42.708;23.288;2023-04-23T09:01:36;94995.03;;;33.74;20.85
6423;BME280;3244;42.708;23.288;2023-04-23T09:04:03;94985.38;;;33.46;21.38
6423;BME280;3244;42.708;23.288;2023-04-23T09:06:32;94985.25;;;33.61;21.01
6423;BME280;3244;42.708;23.288;2023-04-23T09:08:59;94988.16;;;34.21;20.79
6423;BME280;3244;42.708;23.288;2023-04-23T09:11:26;94983.00;;;34.54;20.78
6423;BME280;3244;42.708;23.288;2023-04-23T09:13:53;94990.16;;;33.71;20.87
6423;BME280;3244;42.708;23.288;2023-04-23T09:16:20;94992.75;;;31.72;22.58
6423;BME280;3244;42.708;23.288;2023-04-23T09:18:47;94988.19;;;31.22;23.87
6423;BME280;3244;42.708;23.288;2023-04-23T09:21:15;94985.56;;;29.14;24.78
6423;BME280;3244;42.708;23.288;2023-04-23T09:23:43;94997.56;;;26.46;28.62
6423;BME280;3244;42.708;23.288;2023-04-23T09:26:18;94990.94;;;26.33;29.42
6423;BME280;3244;42.708;23.288;2023-04-23T09:28:47;94984.59;;;25.36;31.25
6423;BME280;3244;42.708;23.288;2023-04-23T09:31:19;94987.97;;;25.09;31.39
6423;BME280;3244;42.708;23.288;2023-04-23T09:33:49;94991.88;;;23.38;33.66
6423;BME280;3244;42.708;23.288;2023-04-23T09:36:19;94989.31;;;21.80;36.86
6423;BME280;3244;42.708;23.288;2023-04-23T09:38:48;94998.47;;;20.37;40.01
6423;BME280;3244;42.708;23.288;2023-04-23T09:41:22;94989.56;;;19.69;41.31
6423;BME280;3244;42.708;23.288;2023-04-23T09:43:51;94980.34;;;19.54;42.20
6423;BME280;3244;42.708;23.288;2023-04-23T09:46:18;94978.94;;;19.61;42.93
6423;BME280;3244;42.708;23.288;2023-04-23T09:48:44;94971.63;;;20.16;43.37
6423;BME280;3244;42.708;23.288;2023-04-23T09:51:13;94970.78;;;20.74;40.75
6423;BME280;3244;42.708;23.288;2023-04-23T09:53:41;94964.06;;;20.83;39.94
6423;BME280;3244;42.708;23.288;2023-04-23T09:56:09;94967.38;;;20.96;39.73
6423;BME280;3244;42.708;23.288;2023-04-23T09:58:36;94963.63;;;21.00;39.50
6423;BME280;3244;42.708;23.288;2023-04-23T10:01:07;94966.56;;;20.95;40.80
6423;BME280;3244;42.708;23.288;2023-04-23T10:03:34;94967.72;;;20.69;39.57
6423;BME280;3244;42.708;23.288;2023-04-23T10:06:01;94956.25;;;20.38;40.32
6423;BME280;3244;42.708;23.288;2023-04-23T10:08:28;94959.31;;;20.19;40.25
6423;BME280;3244;42.708;23.288;2023-04-23T10:10:57;94960.69;;;20.12;40.02
6423;BME280;3244;42.708;23.288;2023-04-23T10:13:25;94950.38;;;20.12;40.70
6423;BME280;3244;42.708;23.288;2023-04-23T10:15:53;94949.50;;;20.24;39.58
6423;BME280;3244;42.708;23.288;2023-04-23T10:18:20;94946.72;;;20.03;39.14
6423;BME280;3244;42.708;23.288;2023-04-23T10:20:48;94945.88;;;19.55;40.20
6423;BME280;3244;42.708;23.288;2023-04-23T10:23:16;94941.56;;;19.43;41.54
6423;BME280;3244;42.708;23.288;2023-04-23T10:25:46;94938.63;;;19.60;40.74
6423;BME280;3244;42.708;23.288;2023-04-23T10:28:16;94933.66;;;19.94;40.20
6423;BME280;3244;42.708;23.288;2023-04-23T10:30:47;94929.06;;;20.21;38.14
6423;BME280;3244;42.708;23.288;2023-04-23T10:33:15;94924.59;;;20.58;38.73
6423;BME280;3244;42.708;23.288;2023-04-23T10:35:43;94893.88;;;20.78;36.75
6423;BME280;3244;42.708;23.288;2023-04-23T10:38:10;94920.47;;;20.45;36.50
6423;BME280;3244;42.708;23.288;2023-04-23T10:40:38;94916.91;;;20.34;37.36
6423;BME280;3244;42.708;23.288;2023-04-23T10:43:08;94915.53;;;20.42;37.93
6423;BME280;3244;42.708;23.288;2023-04-23T10:45:35;94912.75;;;20.45;37.25
6423;BME280;3244;42.708;23.288;2023-04-23T10:48:03;94906.34;;;20.26;37.26
6423;BME280;3244;42.708;23.288;2023-04-23T10:50:34;94893.88;;;20.20;37.52
6423;BME280;3244;42.708;23.288;2023-04-23T10:53:02;94873.94;;;19.87;38.36
6423;BME280;3244;42.708;23.288;2023-04-23T10:55:30;94887.00;;;19.97;38.45
6423;BME280;3244;42.708;23.288;2023-04-23T10:57:59;94890.47;;;20.20;38.24
6423;BME280;3244;42.708;23.288;2023-04-23T11:00:26;94883.41;;;20.46;37.31
6423;BME280;3244;42.708;23.288;2023-04-23T11:02:53;94886.47;;;20.51;36.79
6423;BME280;3244;42.708;23.288;2023-04-23T11:05:22;94878.25;;;20.46;36.51
6423;BME280;3244;42.708;23.288;2023-04-23T11:08:04;94877.31;;;20.47;34.96
6423;BME280;3244;42.708;23.288;2023-04-23T11:10:31;94879.78;;;20.13;34.66
6423;BME280;3244;42.708;23.288;2023-04-23T11:13:18;94863.75;;;20.21;34.91
6423;BME280;3244;42.708;23.288;2023-04-23T11:15:46;94854.53;;;20.41;34.70
6423;BME280;3244;42.708;23.288;2023-04-23T11:18:12;94858.19;;;20.03;34.54
6423;BME280;3244;42.708;23.288;2023-04-23T11:20:40;94873.47;;;19.58;34.56
6423;BME280;3244;42.708;23.288;2023-04-23T11:23:07;94867.84;;;19.17;33.54
6423;BME280;3244;42.708;23.288;2023-04-23T11:25:54;94860.47;;;18.99;35.25
6423;BME280;3244;42.708;23.288;2023-04-23T11:28:22;94856.78;;;19.27;36.34
6423;BME280;3244;42.708;23.288;2023-04-23T11:30:49;94859.88;;;19.56;35.87
6423;BME280;3244;42.708;23.288;2023-04-23T11:33:16;94849.22;;;19.85;36.00
6423;BME280;3244;42.708;23.288;2023-04-23T11:35:44;94850.13;;;20.30;33.45
6423;BME280;3244;42.708;23.288;2023-04-23T11:38:11;94849.03;;;20.10;31.77
6423;BME280;3244;42.708;23.288;2023-04-23T11:40:37;94846.13;;;19.80;32.30
6423;BME280;3244;42.708;23.288;2023-04-23T11:43:07;94840.53;;;19.86;33.46
6423;BME280;3244;42.708;23.288;2023-04-23T11:45:34;94838.59;;;20.00;32.10
6423;BME280;3244;42.708;23.288;2023-04-23T11:48:00;94837.72;;;20.24;31.82
6423;BME280;3244;42.708;23.288;2023-04-23T11:50:28;94839.34;;;20.36;29.59
6423;BME280;3244;42.708;23.288;2023-04-23T11:53:03;94826.16;;;20.52;29.92
6423;BME280;3244;42.708;23.288;2023-04-23T11:55:30;94835.53;;;20.64;30.44
6423;BME280;3244;42.708;23.288;2023-04-23T11:57:57;94820.72;;;20.88;30.89
6423;BME280;3244;42.708;23.288;2023-04-23T12:00:25;94822.09;;;21.15;30.76
6423;BME280;3244;42.708;23.288;2023-04-23T12:02:52;94822.31;;;21.34;31.72
6423;BME280;3244;42.708;23.288;2023-04-23T12:05:20;94821.28;;;21.57;29.19
6423;BME280;3244;42.708;23.288;2023-04-23T12:07:49;94823.88;;;21.57;29.52
6423;BME280;3244;42.708;23.288;2023-04-23T12:10:18;94822.06;;;21.69;30.55
6423;BME280;3244;42.708;23.288;2023-04-23T12:12:49;94822.44;;;21.85;31.12
6423;BME280;3244;42.708;23.288;2023-04-23T12:15:17;94811.94;;;21.98;30.38
6423;BME280;3244;42.708;23.288;2023-04-23T12:17:47;94817.94;;;21.78;28.75
6423;BME280;3244;42.708;23.288;2023-04-23T12:20:17;94812.13;;;21.53;29.12
6423;BME280;3244;42.708;23.288;2023-04-23T12:22:44;94817.19;;;21.00;30.23
6423;BME280;3244;42.708;23.288;2023-04-23T12:25:11;94811.94;;;20.57;29.94
6423;BME280;3244;42.708;23.288;2023-04-23T12:27:40;94803.94;;;20.27;30.47
6423;BME280;3244;42.708;23.288;2023-04-23T12:30:08;94810.81;;;20.15;30.75
6423;BME280;3244;42.708;23.288;2023-04-23T12:32:36;94806.03;;;20.22;31.77
6423;BME280;3244;42.708;23.288;2023-04-23T12:35:03;94803.66;;;20.08;31.51
6423;BME280;3244;42.708;23.288;2023-04-23T12:37:34;94803.66;;;20.08;31.99
6423;BME280;3244;42.708;23.288;2023-04-23T12:40:01;94799.81;;;20.02;31.97
6423;BME280;3244;42.708;23.288;2023-04-23T12:42:31;94799.66;;;19.92;32.07
6423;BME280;3244;42.708;23.288;2023-04-23T12:45:06;94796.75;;;20.08;32.33
6423;BME280;3244;42.708;23.288;2023-04-23T12:47:33;94797.94;;;20.15;31.20
6423;BME280;3244;42.708;23.288;2023-04-23T12:50:00;94796.75;;;20.19;30.77
6423;BME280;3244;42.708;23.288;2023-04-23T12:52:28;94795.53;;;19.79;31.66
6423;BME280;3244;42.708;23.288;2023-04-23T12:54:55;94788.97;;;19.86;31.65
6423;BME280;3244;42.708;23.288;2023-04-23T12:57:23;94789.22;;;20.05;31.48
6423;BME280;3244;42.708;23.288;2023-04-23T12:59:51;94790.66;;;20.31;30.49
6423;BME280;3244;42.708;23.288;2023-04-23T13:02:20;94792.06;;;20.35;30.65
6423;BME280;3244;42.708;23.288;2023-04-23T13:04:47;94787.41;;;20.63;30.86
6423;BME280;3244;42.708;23.288;2023-04-23T13:07:14;94793.91;;;21.12;30.15
6423;BME280;3244;42.708;23.288;2023-04-23T13:09:41;94782.47;;;21.36;29.10
6423;BME280;3244;42.708;23.288;2023-04-23T13:12:07;94783.16;;;21.38;28.49
6423;BME280;3244;42.708;23.288;2023-04-23T13:14:35;94779.75;;;21.38;29.06
6423;BME280;3244;42.708;23.288;2023-04-23T13:17:01;94781.69;;;21.25;28.70